sensor_id;sensor_type;location;lat;lon;timestamp;temperature;humidity
5930;DHT22;2990;48.746;9.236;2022-12-29T00:02:13;6.90;99.90
5930;DHT22;2990;48.746;9.236;2022-12-29T00:04:39;6.90;1.00
5930;DHT22;2990;48.746;9.236;2022-12-29T00:07:05;7.00;1.00
5930;DHT22;2990;48.746;9.236;2022-12-29T00:09:32;6.90;1.00
5930;DHT22;2990;48.746;9.236;2022-12-29T00:11:58;7.00;1.00
5930;DHT22;2990;48.746;9.236;2022-12-29T00:14:24;6.90;1.00
5930;DHT22;2990;48.746;9.236;2022-12-29T00:17:09;6.90;1.00
5930;DHT22;2990;48.746;9.236;2022-12-29T00:19:35;7.00;1.00
5930;DHT22;2990;48.746;9.236;2022-12-29T00:22:35;7.00;1.00
5930;DHT22;2990;48.746;9.236;2022-12-29T00:25:20;7.00;1.00
5930;DHT22;2990;48.746;9.236;2022-12-29T00:28:07;6.90;27.20
5930;DHT22;2990;48.746;9.236;2022-12-29T00:30:51;7.00;99.90
5930;DHT22;2990;48.746;9.236;2022-12-29T00:33:35;7.00;99.90
5930;DHT22;2990;48.746;9.236;2022-12-29T00:39:06;7.10;14.20
5930;DHT22;2990;48.746;9.236;2022-12-29T00:41:51;7.20;1.00
5930;DHT22;2990;48.746;9.236;2022-12-29T00:44:35;7.40;1.00
5930;DHT22;2990;48.746;9.236;2022-12-29T00:47:01;7.60;99.90
5930;DHT22;2990;48.746;9.236;2022-12-29T00:49:29;7.90;99.90
5930;DHT22;2990;48.746;9.236;2022-12-29T00:52:08;7.90;1.00
5930;DHT22;2990;48.746;9.236;2022-12-29T00:54:36;8.00;1.00
5930;DHT22;2990;48.746;9.236;2022-12-29T00:57:03;8.10;1.00
5930;DHT22;2990;48.746;9.236;2022-12-29T00:59:29;8.20;1.00
5930;DHT22;2990;48.746;9.236;2022-12-29T01:01:56;8.20;1.00
5930;DHT22;2990;48.746;9.236;2022-12-29T01:04:24;8.30;1.00
5930;DHT22;2990;48.746;9.236;2022-12-29T01:06:50;8.10;1.00
5930;DHT22;2990;48.746;9.236;2022-12-29T01:09:17;8.10;1.00
5930;DHT22;2990;48.746;9.236;2022-12-29T01:12:02;8.00;1.00
5930;DHT22;2990;48.746;9.236;2022-12-29T01:14:28;8.00;1.00
5930;DHT22;2990;48.746;9.236;2022-12-29T01:16:54;8.00;1.00
5930;DHT22;2990;48.746;9.236;2022-12-29T01:19:21;8.10;1.00
5930;DHT22;2990;48.746;9.236;2022-12-29T01:21:47;8.20;1.00
5930;DHT22;2990;48.746;9.236;2022-12-29T01:24:17;8.30;1.00
5930;DHT22;2990;48.746;9.236;2022-12-29T01:26:43;8.40;1.00
5930;DHT22;2990;48.746;9.236;2022-12-29T01:29:09;8.50;1.00
5930;DHT22;2990;48.746;9.236;2022-12-29T01:31:35;8.60;1.00
5930;DHT22;2990;48.746;9.236;2022-12-29T01:34:00;8.60;1.00
5930;DHT22;2990;48.746;9.236;2022-12-29T01:36:26;8.70;1.00
5930;DHT22;2990;48.746;9.236;2022-12-29T01:38:52;8.70;1.00
5930;DHT22;2990;48.746;9.236;2022-12-29T01:41:17;8.80;1.00
5930;DHT22;2990;48.746;9.236;2022-12-29T01:43:57;8.80;1.00
5930;DHT22;2990;48.746;9.236;2022-12-29T01:46:41;8.90;1.00
5930;DHT22;2990;48.746;9.236;2022-12-29T01:49:13;8.90;1.00
5930;DHT22;2990;48.746;9.236;2022-12-29T01:52:00;8.90;1.00
5930;DHT22;2990;48.746;9.236;2022-12-29T01:57:04;9.00;1.00
5930;DHT22;2990;48.746;9.236;2022-12-29T01:59:34;9.10;1.00
5930;DHT22;2990;48.746;9.236;2022-12-29T02:02:01;9.10;1.00
5930;DHT22;2990;48.746;9.236;2022-12-29T02:04:30;9.10;1.00
5930;DHT22;2990;48.746;9.236;2022-12-29T02:07:01;9.10;1.00
5930;DHT22;2990;48.746;9.236;2022-12-29T02:09:28;9.20;1.00
5930;DHT22;2990;48.746;9.236;2022-12-29T02:11:54;9.20;1.00
5930;DHT22;2990;48.746;9.236;2022-12-29T02:14:19;9.20;1.00
5930;DHT22;2990;48.746;9.236;2022-12-29T02:17:04;9.10;1.00
5930;DHT22;2990;48.746;9.236;2022-12-29T02:26:04;9.20;99.90
5930;DHT22;2990;48.746;9.236;2022-12-29T02:28:44;9.20;99.90
5930;DHT22;2990;48.746;9.236;2022-12-29T02:34:22;9.20;99.90
5930;DHT22;2990;48.746;9.236;2022-12-29T02:37:03;9.20;99.90
5930;DHT22;2990;48.746;9.236;2022-12-29T02:39:55;9.30;99.90
5930;DHT22;2990;48.746;9.236;2022-12-29T02:42:32;9.30;99.90
5930;DHT22;2990;48.746;9.236;2022-12-29T02:48:00;9.40;99.90
5930;DHT22;2990;48.746;9.236;2022-12-29T02:51:03;9.30;99.90
5930;DHT22;2990;48.746;9.236;2022-12-29T02:53:29;9.40;99.90
5930;DHT22;2990;48.746;9.236;2022-12-29T02:56:14;9.40;99.90
5930;DHT22;2990;48.746;9.236;2022-12-29T02:58:40;9.40;99.90
5930;DHT22;2990;48.746;9.236;2022-12-29T03:04:27;9.40;99.90
5930;DHT22;2990;48.746;9.236;2022-12-29T03:13:04;9.40;99.90
5930;DHT22;2990;48.746;9.236;2022-12-29T03:16:06;9.30;99.90
5930;DHT22;2990;48.746;9.236;2022-12-29T03:23:41;9.20;99.90
5930;DHT22;2990;48.746;9.236;2022-12-29T03:26:11;9.20;99.90
5930;DHT22;2990;48.746;9.236;2022-12-29T03:28:50;9.30;99.90
5930;DHT22;2990;48.746;9.236;2022-12-29T03:31:17;9.30;99.90
5930;DHT22;2990;48.746;9.236;2022-12-29T03:33:45;9.30;99.90
5930;DHT22;2990;48.746;9.236;2022-12-29T03:36:17;9.30;99.90
5930;DHT22;2990;48.746;9.236;2022-12-29T03:39:05;9.30;99.90
5930;DHT22;2990;48.746;9.236;2022-12-29T03:41:34;9.40;99.90
5930;DHT22;2990;48.746;9.236;2022-12-29T03:44:00;9.30;99.90
5930;DHT22;2990;48.746;9.236;2022-12-29T03:46:25;9.40;99.90
5930;DHT22;2990;48.746;9.236;2022-12-29T03:48:51;9.40;99.90
5930;DHT22;2990;48.746;9.236;2022-12-29T03:51:16;9.50;99.90
5930;DHT22;2990;48.746;9.236;2022-12-29T03:53:42;9.50;99.90
5930;DHT22;2990;48.746;9.236;2022-12-29T03:56:07;9.50;99.90
5930;DHT22;2990;48.746;9.236;2022-12-29T03:58:33;9.50;99.90
5930;DHT22;2990;48.746;9.236;2022-12-29T04:00:58;9.50;99.90
5930;DHT22;2990;48.746;9.236;2022-12-29T04:03:24;9.50;99.90
5930;DHT22;2990;48.746;9.236;2022-12-29T04:05:49;9.50;99.90
5930;DHT22;2990;48.746;9.236;2022-12-29T04:08:15;9.50;99.90
5930;DHT22;2990;48.746;9.236;2022-12-29T04:10:40;9.50;99.90
5930;DHT22;2990;48.746;9.236;2022-12-29T04:13:06;9.50;99.90
5930;DHT22;2990;48.746;9.236;2022-12-29T04:15:31;9.50;99.90
5930;DHT22;2990;48.746;9.236;2022-12-29T04:17:57;9.50;99.90
5930;DHT22;2990;48.746;9.236;2022-12-29T04:20:22;9.50;99.90
5930;DHT22;2990;48.746;9.236;2022-12-29T04:23:07;9.40;99.90
5930;DHT22;2990;48.746;9.236;2022-12-29T04:25:33;9.40;99.90
5930;DHT22;2990;48.746;9.236;2022-12-29T04:27:59;9.30;99.90
5930;DHT22;2990;48.746;9.236;2022-12-29T04:30:24;9.30;1.00
5930;DHT22;2990;48.746;9.236;2022-12-29T04:32:50;9.30;1.00
5930;DHT22;2990;48.746;9.236;2022-12-29T04:35:15;9.30;1.00
5930;DHT22;2990;48.746;9.236;2022-12-29T04:37:41;9.30;1.00
5930;DHT22;2990;48.746;9.236;2022-12-29T04:40:07;9.30;1.00
5930;DHT22;2990;48.746;9.236;2022-12-29T04:42:33;9.40;1.00
5930;DHT22;2990;48.746;9.236;2022-12-29T04:44:58;9.40;1.00
5930;DHT22;2990;48.746;9.236;2022-12-29T04:47:24;9.40;1.00
5930;DHT22;2990;48.746;9.236;2022-12-29T04:49:49;9.40;1.00
5930;DHT22;2990;48.746;9.236;2022-12-29T04:52:15;9.40;1.00
5930;DHT22;2990;48.746;9.236;2022-12-29T04:54:40;9.40;1.00
5930;DHT22;2990;48.746;9.236;2022-12-29T04:57:06;9.40;1.00
5930;DHT22;2990;48.746;9.236;2022-12-29T04:59:31;9.40;1.00
5930;DHT22;2990;48.746;9.236;2022-12-29T05:01:57;9.30;1.00
5930;DHT22;2990;48.746;9.236;2022-12-29T05:04:22;9.30;1.00
5930;DHT22;2990;48.746;9.236;2022-12-29T05:06:49;9.30;1.00
5930;DHT22;2990;48.746;9.236;2022-12-29T05:09:14;9.30;1.00
5930;DHT22;2990;48.746;9.236;2022-12-29T05:11:40;9.30;1.00
5930;DHT22;2990;48.746;9.236;2022-12-29T05:14:05;9.20;1.00
5930;DHT22;2990;48.746;9.236;2022-12-29T05:16:31;9.20;1.00
5930;DHT22;2990;48.746;9.236;2022-12-29T05:18:56;9.20;1.00
5930;DHT22;2990;48.746;9.236;2022-12-29T05:21:22;9.20;1.00
5930;DHT22;2990;48.746;9.236;2022-12-29T05:23:47;9.30;1.00
5930;DHT22;2990;48.746;9.236;2022-12-29T05:26:13;9.30;1.00
5930;DHT22;2990;48.746;9.236;2022-12-29T05:28:38;9.30;1.00
5930;DHT22;2990;48.746;9.236;2022-12-29T05:31:04;9.20;1.00
5930;DHT22;2990;48.746;9.236;2022-12-29T05:33:29;9.20;1.00
5930;DHT22;2990;48.746;9.236;2022-12-29T05:35:55;9.20;1.00
5930;DHT22;2990;48.746;9.236;2022-12-29T05:38:20;9.20;1.00
5930;DHT22;2990;48.746;9.236;2022-12-29T05:40:46;9.20;1.00
5930;DHT22;2990;48.746;9.236;2022-12-29T05:43:12;9.20;1.00
5930;DHT22;2990;48.746;9.236;2022-12-29T05:45:37;9.20;1.00
5930;DHT22;2990;48.746;9.236;2022-12-29T05:48:03;9.30;1.00
5930;DHT22;2990;48.746;9.236;2022-12-29T05:50:28;9.30;1.00
5930;DHT22;2990;48.746;9.236;2022-12-29T05:52:54;9.40;1.00
5930;DHT22;2990;48.746;9.236;2022-12-29T05:55:20;9.30;1.00
5930;DHT22;2990;48.746;9.236;2022-12-29T05:57:46;9.40;1.00
5930;DHT22;2990;48.746;9.236;2022-12-29T06:00:12;9.40;1.00
5930;DHT22;2990;48.746;9.236;2022-12-29T06:02:37;9.40;1.00
5930;DHT22;2990;48.746;9.236;2022-12-29T06:05:03;9.40;1.00
5930;DHT22;2990;48.746;9.236;2022-12-29T06:07:28;9.50;1.00
5930;DHT22;2990;48.746;9.236;2022-12-29T06:09:54;9.50;1.00
5930;DHT22;2990;48.746;9.236;2022-12-29T06:12:19;9.50;1.00
5930;DHT22;2990;48.746;9.236;2022-12-29T06:14:45;9.60;1.00
5930;DHT22;2990;48.746;9.236;2022-12-29T06:17:10;9.60;1.00
5930;DHT22;2990;48.746;9.236;2022-12-29T06:19:36;9.60;1.00
5930;DHT22;2990;48.746;9.236;2022-12-29T06:22:02;9.60;1.00
5930;DHT22;2990;48.746;9.236;2022-12-29T06:24:27;9.60;1.00
5930;DHT22;2990;48.746;9.236;2022-12-29T06:26:53;9.50;1.00
5930;DHT22;2990;48.746;9.236;2022-12-29T06:29:18;9.40;1.00
5930;DHT22;2990;48.746;9.236;2022-12-29T06:31:45;9.40;1.00
5930;DHT22;2990;48.746;9.236;2022-12-29T06:34:12;9.40;1.00
5930;DHT22;2990;48.746;9.236;2022-12-29T06:36:38;9.40;1.00
5930;DHT22;2990;48.746;9.236;2022-12-29T06:39:04;9.30;1.00
5930;DHT22;2990;48.746;9.236;2022-12-29T06:41:29;9.30;1.00
5930;DHT22;2990;48.746;9.236;2022-12-29T06:43:55;9.30;1.00
5930;DHT22;2990;48.746;9.236;2022-12-29T06:46:20;9.20;1.00
5930;DHT22;2990;48.746;9.236;2022-12-29T06:48:46;9.20;1.00
5930;DHT22;2990;48.746;9.236;2022-12-29T06:51:12;9.20;1.00
5930;DHT22;2990;48.746;9.236;2022-12-29T06:53:37;9.20;1.00
5930;DHT22;2990;48.746;9.236;2022-12-29T06:56:03;9.20;1.00
5930;DHT22;2990;48.746;9.236;2022-12-29T06:58:29;9.20;1.00
5930;DHT22;2990;48.746;9.236;2022-12-29T07:00:54;9.20;1.00
5930;DHT22;2990;48.746;9.236;2022-12-29T07:03:20;9.20;1.00
5930;DHT22;2990;48.746;9.236;2022-12-29T07:05:45;9.10;1.00
5930;DHT22;2990;48.746;9.236;2022-12-29T07:08:11;9.10;1.00
5930;DHT22;2990;48.746;9.236;2022-12-29T07:10:37;9.10;1.00
5930;DHT22;2990;48.746;9.236;2022-12-29T07:13:02;9.10;1.00
5930;DHT22;2990;48.746;9.236;2022-12-29T07:15:27;9.10;1.00
5930;DHT22;2990;48.746;9.236;2022-12-29T07:17:53;9.10;1.00
5930;DHT22;2990;48.746;9.236;2022-12-29T07:20:19;9.10;1.00
5930;DHT22;2990;48.746;9.236;2022-12-29T07:22:44;9.00;1.00
5930;DHT22;2990;48.746;9.236;2022-12-29T07:25:10;9.00;1.00
5930;DHT22;2990;48.746;9.236;2022-12-29T07:27:35;9.00;1.00
5930;DHT22;2990;48.746;9.236;2022-12-29T07:30:01;9.00;1.00
5930;DHT22;2990;48.746;9.236;2022-12-29T07:32:26;9.00;1.00
5930;DHT22;2990;48.746;9.236;2022-12-29T07:34:52;9.10;1.00
5930;DHT22;2990;48.746;9.236;2022-12-29T07:37:18;9.10;1.00
5930;DHT22;2990;48.746;9.236;2022-12-29T07:39:44;9.10;1.00
5930;DHT22;2990;48.746;9.236;2022-12-29T07:42:09;9.10;1.00
5930;DHT22;2990;48.746;9.236;2022-12-29T07:44:35;9.20;1.00
5930;DHT22;2990;48.746;9.236;2022-12-29T07:47:02;9.20;1.00
5930;DHT22;2990;48.746;9.236;2022-12-29T07:49:27;9.30;1.00
5930;DHT22;2990;48.746;9.236;2022-12-29T07:51:53;9.20;1.00
5930;DHT22;2990;48.746;9.236;2022-12-29T07:54:18;9.30;1.00
5930;DHT22;2990;48.746;9.236;2022-12-29T07:56:45;9.30;1.00
5930;DHT22;2990;48.746;9.236;2022-12-29T07:59:10;9.30;1.00
5930;DHT22;2990;48.746;9.236;2022-12-29T08:01:37;9.40;1.00
5930;DHT22;2990;48.746;9.236;2022-12-29T08:04:03;9.40;1.00
5930;DHT22;2990;48.746;9.236;2022-12-29T08:06:28;9.40;1.00
5930;DHT22;2990;48.746;9.236;2022-12-29T08:08:56;9.40;1.00
5930;DHT22;2990;48.746;9.236;2022-12-29T08:11:22;9.40;1.00
5930;DHT22;2990;48.746;9.236;2022-12-29T08:13:47;9.40;1.00
5930;DHT22;2990;48.746;9.236;2022-12-29T08:16:13;9.50;1.00
5930;DHT22;2990;48.746;9.236;2022-12-29T08:18:38;9.50;1.00
5930;DHT22;2990;48.746;9.236;2022-12-29T08:21:04;9.60;1.00
5930;DHT22;2990;48.746;9.236;2022-12-29T08:23:31;9.60;1.00
5930;DHT22;2990;48.746;9.236;2022-12-29T08:26:01;9.70;1.00
5930;DHT22;2990;48.746;9.236;2022-12-29T08:28:27;9.70;1.00
5930;DHT22;2990;48.746;9.236;2022-12-29T08:30:54;9.80;1.00
5930;DHT22;2990;48.746;9.236;2022-12-29T08:33:19;9.90;1.00
5930;DHT22;2990;48.746;9.236;2022-12-29T08:35:45;9.90;1.00
5930;DHT22;2990;48.746;9.236;2022-12-29T08:38:10;9.90;1.00
5930;DHT22;2990;48.746;9.236;2022-12-29T08:40:37;10.00;1.00
5930;DHT22;2990;48.746;9.236;2022-12-29T08:43:02;10.00;1.00
5930;DHT22;2990;48.746;9.236;2022-12-29T08:45:28;10.00;1.00
5930;DHT22;2990;48.746;9.236;2022-12-29T08:47:53;10.00;1.00
5930;DHT22;2990;48.746;9.236;2022-12-29T08:50:19;10.10;1.00
5930;DHT22;2990;48.746;9.236;2022-12-29T08:52:44;10.10;1.00
5930;DHT22;2990;48.746;9.236;2022-12-29T08:55:10;10.00;1.00
5930;DHT22;2990;48.746;9.236;2022-12-29T08:57:36;10.10;1.00
5930;DHT22;2990;48.746;9.236;2022-12-29T09:00:03;10.00;1.00
5930;DHT22;2990;48.746;9.236;2022-12-29T09:02:29;10.10;1.00
5930;DHT22;2990;48.746;9.236;2022-12-29T09:04:54;10.10;1.00
5930;DHT22;2990;48.746;9.236;2022-12-29T09:07:22;10.10;1.00
5930;DHT22;2990;48.746;9.236;2022-12-29T09:09:48;10.10;1.00
5930;DHT22;2990;48.746;9.236;2022-12-29T09:12:13;10.10;1.00
5930;DHT22;2990;48.746;9.236;2022-12-29T09:14:39;10.10;1.00
5930;DHT22;2990;48.746;9.236;2022-12-29T09:17:05;10.20;1.00
5930;DHT22;2990;48.746;9.236;2022-12-29T09:19:49;10.20;1.00
5930;DHT22;2990;48.746;9.236;2022-12-29T09:22:14;10.40;99.90
5930;DHT22;2990;48.746;9.236;2022-12-29T09:24:40;10.40;99.90
5930;DHT22;2990;48.746;9.236;2022-12-29T09:27:05;10.60;99.90
5930;DHT22;2990;48.746;9.236;2022-12-29T09:29:31;10.70;99.90
5930;DHT22;2990;48.746;9.236;2022-12-29T09:31:56;10.70;99.90
5930;DHT22;2990;48.746;9.236;2022-12-29T09:34:22;10.80;99.90
5930;DHT22;2990;48.746;9.236;2022-12-29T09:36:47;10.80;99.90
5930;DHT22;2990;48.746;9.236;2022-12-29T09:39:13;10.90;99.90
5930;DHT22;2990;48.746;9.236;2022-12-29T09:41:39;10.90;99.90
5930;DHT22;2990;48.746;9.236;2022-12-29T09:44:25;10.90;99.90
5930;DHT22;2990;48.746;9.236;2022-12-29T09:46:54;11.00;99.90
5930;DHT22;2990;48.746;9.236;2022-12-29T09:51:51;11.00;99.90
5930;DHT22;2990;48.746;9.236;2022-12-29T10:00:23;11.20;99.90
5930;DHT22;2990;48.746;9.236;2022-12-29T10:02:58;11.30;99.90
5930;DHT22;2990;48.746;9.236;2022-12-29T10:05:50;11.30;99.90
5930;DHT22;2990;48.746;9.236;2022-12-29T10:21:59;11.20;99.90
5930;DHT22;2990;48.746;9.236;2022-12-29T10:24:29;11.20;99.90
5930;DHT22;2990;48.746;9.236;2022-12-29T10:26:58;11.10;99.90
5930;DHT22;2990;48.746;9.236;2022-12-29T10:29:37;11.20;99.90
5930;DHT22;2990;48.746;9.236;2022-12-29T10:32:06;11.20;99.90
5930;DHT22;2990;48.746;9.236;2022-12-29T10:34:37;11.20;99.90
5930;DHT22;2990;48.746;9.236;2022-12-29T10:37:12;11.20;99.90
5930;DHT22;2990;48.746;9.236;2022-12-29T10:39:49;11.30;99.90
5930;DHT22;2990;48.746;9.236;2022-12-29T10:42:28;11.30;99.90
5930;DHT22;2990;48.746;9.236;2022-12-29T10:44:59;11.40;99.90
5930;DHT22;2990;48.746;9.236;2022-12-29T10:47:28;11.40;99.90
5930;DHT22;2990;48.746;9.236;2022-12-29T10:49:55;11.60;99.90
5930;DHT22;2990;48.746;9.236;2022-12-29T10:52:24;12.10;99.90
5930;DHT22;2990;48.746;9.236;2022-12-29T10:55:03;12.40;99.90
5930;DHT22;2990;48.746;9.236;2022-12-29T10:57:38;12.80;99.90
5930;DHT22;2990;48.746;9.236;2022-12-29T11:00:15;12.90;99.90
5930;DHT22;2990;48.746;9.236;2022-12-29T11:03:04;12.90;99.90
5930;DHT22;2990;48.746;9.236;2022-12-29T11:08:19;13.00;99.90
5930;DHT22;2990;48.746;9.236;2022-12-29T11:11:02;12.80;99.90
5930;DHT22;2990;48.746;9.236;2022-12-29T11:13:31;12.60;99.90
5930;DHT22;2990;48.746;9.236;2022-12-29T11:15:57;12.40;99.90
5930;DHT22;2990;48.746;9.236;2022-12-29T11:20:53;12.10;99.90
5930;DHT22;2990;48.746;9.236;2022-12-29T11:23:30;12.10;99.90
5930;DHT22;2990;48.746;9.236;2022-12-29T11:26:12;12.10;99.90
5930;DHT22;2990;48.746;9.236;2022-12-29T11:28:43;12.10;99.90
5930;DHT22;2990;48.746;9.236;2022-12-29T11:31:09;12.10;99.90
5930;DHT22;2990;48.746;9.236;2022-12-29T11:33:36;12.10;99.90
5930;DHT22;2990;48.746;9.236;2022-12-29T11:36:15;12.00;99.90
5930;DHT22;2990;48.746;9.236;2022-12-29T11:38:47;11.90;99.90
5930;DHT22;2990;48.746;9.236;2022-12-29T11:41:25;11.90;99.90
5930;DHT22;2990;48.746;9.236;2022-12-29T11:47:38;11.80;99.90
5930;DHT22;2990;48.746;9.236;2022-12-29T11:50:07;11.70;99.90
5930;DHT22;2990;48.746;9.236;2022-12-29T11:52:35;11.70;99.90
5930;DHT22;2990;48.746;9.236;2022-12-29T11:55:06;11.70;1.00
5930;DHT22;2990;48.746;9.236;2022-12-29T11:57:41;11.70;99.90
5930;DHT22;2990;48.746;9.236;2022-12-29T12:00:19;11.70;99.90
5930;DHT22;2990;48.746;9.236;2022-12-29T12:02:50;11.70;99.90
5930;DHT22;2990;48.746;9.236;2022-12-29T12:05:48;11.70;99.90
5930;DHT22;2990;48.746;9.236;2022-12-29T14:13:21;11.10;1.00
5930;DHT22;2990;48.746;9.236;2022-12-29T14:15:56;11.10;99.90
5930;DHT22;2990;48.746;9.236;2022-12-29T14:18:28;11.10;1.00
5930;DHT22;2990;48.746;9.236;2022-12-29T14:21:20;11.10;1.00
5930;DHT22;2990;48.746;9.236;2022-12-29T14:23:49;11.10;1.00
5930;DHT22;2990;48.746;9.236;2022-12-29T14:28:57;10.90;99.90
5930;DHT22;2990;48.746;9.236;2022-12-29T14:31:40;10.90;1.00
5930;DHT22;2990;48.746;9.236;2022-12-29T14:44:55;10.90;1.00
5930;DHT22;2990;48.746;9.236;2022-12-29T14:47:28;10.80;20.70
5930;DHT22;2990;48.746;9.236;2022-12-29T14:50:13;10.80;99.90
5930;DHT22;2990;48.746;9.236;2022-12-29T14:52:46;10.70;99.90
5930;DHT22;2990;48.746;9.236;2022-12-29T14:57:48;10.60;1.00
5930;DHT22;2990;48.746;9.236;2022-12-29T15:00:19;10.60;4.00
5930;DHT22;2990;48.746;9.236;2022-12-29T15:02:49;10.60;1.00
5930;DHT22;2990;48.746;9.236;2022-12-29T15:05:30;10.50;1.00
5930;DHT22;2990;48.746;9.236;2022-12-29T15:07:58;10.60;95.70
5930;DHT22;2990;48.746;9.236;2022-12-29T15:10:27;10.50;99.90
5930;DHT22;2990;48.746;9.236;2022-12-29T15:13:03;10.40;1.00
5930;DHT22;2990;48.746;9.236;2022-12-29T15:15:36;10.40;1.00
5930;DHT22;2990;48.746;9.236;2022-12-29T15:18:21;10.40;99.90
5930;DHT22;2990;48.746;9.236;2022-12-29T15:20:51;10.40;99.90
5930;DHT22;2990;48.746;9.236;2022-12-29T15:23:17;10.40;99.90
5930;DHT22;2990;48.746;9.236;2022-12-29T15:26:04;10.30;99.90
5930;DHT22;2990;48.746;9.236;2022-12-29T15:28:38;10.30;99.90
5930;DHT22;2990;48.746;9.236;2022-12-29T15:31:10;10.30;1.00
5930;DHT22;2990;48.746;9.236;2022-12-29T15:33:40;10.30;99.90
5930;DHT22;2990;48.746;9.236;2022-12-29T15:36:28;10.30;1.00
5930;DHT22;2990;48.746;9.236;2022-12-29T15:38:55;10.20;99.90
5930;DHT22;2990;48.746;9.236;2022-12-29T15:41:41;10.30;1.00
5930;DHT22;2990;48.746;9.236;2022-12-29T15:44:44;10.30;1.00
5930;DHT22;2990;48.746;9.236;2022-12-29T15:47:22;10.30;99.90
5930;DHT22;2990;48.746;9.236;2022-12-29T15:49:52;10.30;1.00
5930;DHT22;2990;48.746;9.236;2022-12-29T15:52:20;10.30;1.00
5930;DHT22;2990;48.746;9.236;2022-12-29T15:54:49;10.30;1.00
5930;DHT22;2990;48.746;9.236;2022-12-29T15:57:23;10.30;1.00
5930;DHT22;2990;48.746;9.236;2022-12-29T15:59:50;10.30;99.90
5930;DHT22;2990;48.746;9.236;2022-12-29T16:02:15;10.40;1.00
5930;DHT22;2990;48.746;9.236;2022-12-29T16:04:41;10.40;1.00
5930;DHT22;2990;48.746;9.236;2022-12-29T16:09:54;10.40;1.00
5930;DHT22;2990;48.746;9.236;2022-12-29T16:12:22;10.40;1.00
5930;DHT22;2990;48.746;9.236;2022-12-29T16:14:54;10.40;99.90
5930;DHT22;2990;48.746;9.236;2022-12-29T16:17:27;10.30;99.90
5930;DHT22;2990;48.746;9.236;2022-12-29T16:22:41;10.20;99.90
5930;DHT22;2990;48.746;9.236;2022-12-29T16:25:47;10.00;1.00
5930;DHT22;2990;48.746;9.236;2022-12-29T16:28:24;9.80;99.90
5930;DHT22;2990;48.746;9.236;2022-12-29T16:31:02;9.60;1.00
5930;DHT22;2990;48.746;9.236;2022-12-29T16:36:02;9.40;99.90
5930;DHT22;2990;48.746;9.236;2022-12-29T16:38:46;9.40;99.90
5930;DHT22;2990;48.746;9.236;2022-12-29T16:41:28;9.30;99.90
5930;DHT22;2990;48.746;9.236;2022-12-29T16:49:39;9.30;99.90
5930;DHT22;2990;48.746;9.236;2022-12-29T17:03:19;9.00;1.00
5930;DHT22;2990;48.746;9.236;2022-12-29T17:05:56;9.00;1.00
5930;DHT22;2990;48.746;9.236;2022-12-29T17:08:43;8.90;1.00
5930;DHT22;2990;48.746;9.236;2022-12-29T17:13:52;8.90;1.00
5930;DHT22;2990;48.746;9.236;2022-12-29T17:16:17;8.90;1.00
5930;DHT22;2990;48.746;9.236;2022-12-29T17:18:43;8.90;1.00
5930;DHT22;2990;48.746;9.236;2022-12-29T17:21:56;8.80;1.00
5930;DHT22;2990;48.746;9.236;2022-12-29T17:24:45;8.80;1.00
5930;DHT22;2990;48.746;9.236;2022-12-29T17:33:46;8.70;1.00
5930;DHT22;2990;48.746;9.236;2022-12-29T18:03:59;8.50;1.00
5930;DHT22;2990;48.746;9.236;2022-12-29T18:06:42;8.50;1.00
5930;DHT22;2990;48.746;9.236;2022-12-29T18:09:36;8.50;1.00
5930;DHT22;2990;48.746;9.236;2022-12-29T18:12:48;8.50;1.00
5930;DHT22;2990;48.746;9.236;2022-12-29T18:16:03;8.50;3.30
5930;DHT22;2990;48.746;9.236;2022-12-29T18:18:35;8.60;15.80
5930;DHT22;2990;48.746;9.236;2022-12-29T18:21:08;8.50;27.30
5930;DHT22;2990;48.746;9.236;2022-12-29T18:23:50;8.40;25.90
5930;DHT22;2990;48.746;9.236;2022-12-29T18:26:23;8.50;16.60
5930;DHT22;2990;48.746;9.236;2022-12-29T18:28:55;8.60;26.80
5930;DHT22;2990;48.746;9.236;2022-12-29T18:33:49;8.50;77.50
5930;DHT22;2990;48.746;9.236;2022-12-29T18:36:16;8.50;96.10
5930;DHT22;2990;48.746;9.236;2022-12-29T18:38:42;8.30;99.90
5930;DHT22;2990;48.746;9.236;2022-12-29T18:41:18;8.20;99.90
5930;DHT22;2990;48.746;9.236;2022-12-29T18:43:46;8.10;99.90
5930;DHT22;2990;48.746;9.236;2022-12-29T18:46:14;8.00;99.90
5930;DHT22;2990;48.746;9.236;2022-12-29T18:48:53;8.00;99.90
5930;DHT22;2990;48.746;9.236;2022-12-29T18:51:22;8.00;99.90
5930;DHT22;2990;48.746;9.236;2022-12-29T18:53:48;7.90;99.90
5930;DHT22;2990;48.746;9.236;2022-12-29T18:56:14;8.00;99.90
5930;DHT22;2990;48.746;9.236;2022-12-29T18:58:40;7.80;99.90
5930;DHT22;2990;48.746;9.236;2022-12-29T19:01:09;7.90;99.90
5930;DHT22;2990;48.746;9.236;2022-12-29T19:03:42;7.80;99.90
5930;DHT22;2990;48.746;9.236;2022-12-29T19:06:08;7.80;99.90
5930;DHT22;2990;48.746;9.236;2022-12-29T19:08:33;7.80;99.90
5930;DHT22;2990;48.746;9.236;2022-12-29T19:10:59;7.80;99.90
5930;DHT22;2990;48.746;9.236;2022-12-29T19:13:24;7.80;99.90
5930;DHT22;2990;48.746;9.236;2022-12-29T19:15:57;7.80;99.90
5930;DHT22;2990;48.746;9.236;2022-12-29T19:18:24;7.70;99.90
5930;DHT22;2990;48.746;9.236;2022-12-29T19:20:52;7.70;99.90
5930;DHT22;2990;48.746;9.236;2022-12-29T19:23:21;7.70;99.90
5930;DHT22;2990;48.746;9.236;2022-12-29T19:25:47;7.60;99.90
5930;DHT22;2990;48.746;9.236;2022-12-29T19:28:23;7.60;99.90
5930;DHT22;2990;48.746;9.236;2022-12-29T19:30:49;7.60;99.90
5930;DHT22;2990;48.746;9.236;2022-12-29T19:33:15;7.50;99.90
5930;DHT22;2990;48.746;9.236;2022-12-29T19:35:41;7.50;99.90
5930;DHT22;2990;48.746;9.236;2022-12-29T19:38:09;7.50;99.90
5930;DHT22;2990;48.746;9.236;2022-12-29T19:40:36;7.50;99.90
5930;DHT22;2990;48.746;9.236;2022-12-29T19:43:01;7.40;99.90
5930;DHT22;2990;48.746;9.236;2022-12-29T19:45:27;7.40;99.90
5930;DHT22;2990;48.746;9.236;2022-12-29T19:47:53;7.40;99.90
5930;DHT22;2990;48.746;9.236;2022-12-29T19:50:19;7.40;99.90
5930;DHT22;2990;48.746;9.236;2022-12-29T19:52:44;7.30;99.90
5930;DHT22;2990;48.746;9.236;2022-12-29T19:55:15;7.30;99.90
5930;DHT22;2990;48.746;9.236;2022-12-29T19:57:41;7.30;99.90
5930;DHT22;2990;48.746;9.236;2022-12-29T20:00:08;7.30;99.90
5930;DHT22;2990;48.746;9.236;2022-12-29T20:02:33;7.30;99.90
5930;DHT22;2990;48.746;9.236;2022-12-29T20:04:59;7.30;99.90
5930;DHT22;2990;48.746;9.236;2022-12-29T20:07:25;7.20;99.90
5930;DHT22;2990;48.746;9.236;2022-12-29T20:09:51;7.20;99.90
5930;DHT22;2990;48.746;9.236;2022-12-29T20:12:17;7.10;99.90
5930;DHT22;2990;48.746;9.236;2022-12-29T20:14:44;7.10;99.90
5930;DHT22;2990;48.746;9.236;2022-12-29T20:17:12;7.10;99.90
5930;DHT22;2990;48.746;9.236;2022-12-29T20:19:38;7.10;99.90
5930;DHT22;2990;48.746;9.236;2022-12-29T20:22:06;7.10;99.90
5930;DHT22;2990;48.746;9.236;2022-12-29T20:24:34;7.00;99.90
5930;DHT22;2990;48.746;9.236;2022-12-29T20:27:00;7.00;99.90
5930;DHT22;2990;48.746;9.236;2022-12-29T20:29:30;6.90;99.90
5930;DHT22;2990;48.746;9.236;2022-12-29T20:31:56;6.90;99.90
5930;DHT22;2990;48.746;9.236;2022-12-29T20:34:22;6.90;99.90
5930;DHT22;2990;48.746;9.236;2022-12-29T20:36:48;6.90;99.90
5930;DHT22;2990;48.746;9.236;2022-12-29T20:39:17;6.90;99.90
5930;DHT22;2990;48.746;9.236;2022-12-29T20:41:43;6.80;99.90
5930;DHT22;2990;48.746;9.236;2022-12-29T20:44:09;6.90;99.90
5930;DHT22;2990;48.746;9.236;2022-12-29T20:46:35;6.90;99.90
5930;DHT22;2990;48.746;9.236;2022-12-29T20:49:01;6.80;99.90
5930;DHT22;2990;48.746;9.236;2022-12-29T20:51:27;6.80;99.90
5930;DHT22;2990;48.746;9.236;2022-12-29T20:53:55;6.80;99.90
5930;DHT22;2990;48.746;9.236;2022-12-29T20:56:23;6.80;99.90
5930;DHT22;2990;48.746;9.236;2022-12-29T20:58:50;6.80;99.90
5930;DHT22;2990;48.746;9.236;2022-12-29T21:01:17;6.80;99.90
5930;DHT22;2990;48.746;9.236;2022-12-29T21:03:43;6.80;99.90
5930;DHT22;2990;48.746;9.236;2022-12-29T21:06:09;6.70;99.90
5930;DHT22;2990;48.746;9.236;2022-12-29T21:08:36;6.70;99.90
5930;DHT22;2990;48.746;9.236;2022-12-29T21:11:02;6.70;99.90